createdAt,value
2022-08-17T00:00:49.494Z,8.80
2022-08-17T00:01:51.879Z,10.10
2022-08-17T00:02:42.798Z,11.90
2022-08-17T00:03:38.128Z,14.90
2022-08-17T00:04:37.117Z,8.90
2022-08-17T00:05:37.108Z,10.50
2022-08-17T00:06:37.119Z,11.70
2022-08-17T00:07:37.089Z,13.10
2022-08-17T00:08:37.078Z,7.30
2022-08-17T00:09:37.068Z,12.60
2022-08-17T00:10:37.049Z,13.80
2022-08-17T00:11:37.060Z,13.70
2022-08-17T00:12:43.395Z,11.10
2022-08-17T00:13:38.033Z,10.20
2022-08-17T00:14:37.015Z,10.30
2022-08-17T00:15:37.002Z,12.60
2022-08-17T00:16:56.891Z,11.90
2022-08-17T00:17:37.985Z,7.50
2022-08-17T00:19:06.026Z,9.60
2022-08-17T00:19:37.953Z,13.60
2022-08-17T00:20:36.955Z,9.60
2022-08-17T00:22:31.394Z,9.40
2022-08-17T00:22:37.937Z,10.30
2022-08-17T00:23:36.923Z,11.10
2022-08-17T00:24:36.912Z,13.00
2022-08-17T00:25:36.896Z,10.10
2022-08-17T00:26:44.982Z,11.20
2022-08-17T00:27:37.876Z,8.10
2022-08-17T00:28:36.857Z,10.80
2022-08-17T00:29:36.857Z,7.50
2022-08-17T00:30:51.017Z,9.80
2022-08-17T00:31:37.867Z,9.80
2022-08-17T00:33:12.227Z,9.70
2022-08-17T00:33:37.807Z,9.00
2022-08-17T00:34:36.797Z,12.00
2022-08-17T00:35:36.789Z,9.30
2022-08-17T00:36:36.798Z,10.00
2022-08-17T00:37:36.781Z,8.60
2022-08-17T00:38:36.763Z,9.60
2022-08-17T00:39:36.799Z,9.20
2022-08-17T00:40:40.580Z,9.00
2022-08-17T00:41:42.472Z,10.80
2022-08-17T00:42:37.711Z,10.60
2022-08-17T00:43:36.703Z,9.40
2022-08-17T00:44:36.683Z,9.50
2022-08-17T00:45:36.683Z,12.40
2022-08-17T00:46:36.683Z,8.40
2022-08-17T00:47:36.663Z,10.00
2022-08-17T00:48:36.644Z,9.40
2022-08-17T00:49:36.647Z,9.10
2022-08-17T00:50:36.624Z,8.00
2022-08-17T00:51:36.647Z,11.10
2022-08-17T00:52:36.606Z,10.90
2022-08-17T00:53:36.598Z,9.90
2022-08-17T00:54:41.685Z,12.30
2022-08-17T00:55:37.577Z,8.50
2022-08-17T00:56:36.589Z,12.00
2022-08-17T00:57:36.558Z,13.20
2022-08-17T00:58:36.862Z,10.80
2022-08-17T00:59:36.539Z,11.40
2022-08-17T01:00:36.519Z,8.30
2022-08-17T01:01:36.583Z,15.10
2022-08-17T01:02:42.362Z,8.40
2022-08-17T01:03:37.499Z,10.70
2022-08-17T01:04:36.481Z,7.80
2022-08-17T01:05:36.471Z,8.90
2022-08-17T01:06:36.480Z,12.50
2022-08-17T01:07:37.823Z,11.20
2022-08-17T01:08:36.441Z,9.30
2022-08-17T01:09:36.442Z,11.40
2022-08-17T01:10:59.689Z,8.10
2022-08-17T01:11:37.433Z,10.10
2022-08-17T01:12:36.397Z,9.00
2022-08-17T01:13:40.668Z,8.30
2022-08-17T01:14:37.385Z,9.30
2022-08-17T01:15:36.376Z,8.20
2022-08-17T01:16:36.377Z,8.00
2022-08-17T01:17:36.374Z,8.10
2022-08-17T01:18:36.336Z,11.20
2022-08-17T01:19:36.326Z,13.90
2022-08-17T01:20:48.427Z,7.80
2022-08-17T01:21:37.334Z,13.10
2022-08-17T01:22:36.297Z,13.80
2022-08-17T01:23:36.288Z,9.80
2022-08-17T01:24:36.279Z,10.60
2022-08-17T01:25:36.268Z,11.40
2022-08-17T01:26:36.280Z,12.10
2022-08-17T01:27:36.249Z,10.50
2022-08-17T01:28:54.437Z,12.30
2022-08-17T01:29:37.224Z,8.10
2022-08-17T01:30:56.894Z,12.40
2022-08-17T01:31:37.233Z,8.20
2022-08-17T01:32:36.191Z,6.80
2022-08-17T01:33:36.187Z,10.80
2022-08-17T01:34:43.882Z,9.30
2022-08-17T01:35:37.182Z,9.30
2022-08-17T01:36:36.192Z,8.50
2022-08-17T01:37:36.143Z,11.20
2022-08-17T01:38:36.132Z,11.40
2022-08-17T01:39:36.183Z,9.70
2022-08-17T01:40:36.113Z,10.40
2022-08-17T01:41:36.110Z,10.90
2022-08-17T01:42:36.115Z,7.90
2022-08-17T01:43:36.091Z,10.30
2022-08-17T01:44:36.083Z,10.60
2022-08-17T01:45:36.065Z,8.10
2022-08-17T01:46:36.045Z,10.40
2022-08-17T01:47:36.195Z,12.60
2022-08-17T01:48:36.026Z,8.20
2022-08-17T01:49:36.027Z,10.50
2022-08-17T01:50:36.007Z,9.60
2022-08-17T01:51:35.998Z,10.10
2022-08-17T01:52:36.008Z,8.50
2022-08-17T01:53:35.982Z,8.70
2022-08-17T01:54:35.984Z,9.90
2022-08-17T01:55:35.959Z,10.50
2022-08-17T01:56:35.950Z,11.70
2022-08-17T01:57:35.962Z,13.80
2022-08-17T01:58:35.932Z,10.40
2022-08-17T01:59:35.912Z,6.80
2022-08-17T02:00:59.703Z,11.10
2022-08-17T02:01:36.923Z,18.00
2022-08-17T02:02:35.927Z,7.70
2022-08-17T02:03:35.872Z,10.10
2022-08-17T02:04:35.863Z,6.10
2022-08-17T02:05:35.865Z,7.40
2022-08-17T02:06:44.818Z,10.10
2022-08-17T02:07:47.992Z,9.10
2022-08-17T02:08:37.154Z,6.00
2022-08-17T02:09:35.814Z,12.10
2022-08-17T02:10:36.806Z,9.30
2022-08-17T02:11:36.825Z,12.60
2022-08-17T02:12:38.444Z,10.40
2022-08-17T02:13:35.766Z,12.00
2022-08-17T02:14:35.767Z,10.30
2022-08-17T02:15:35.748Z,8.00
2022-08-17T02:16:37.485Z,8.10
2022-08-17T02:17:35.750Z,6.90
2022-08-17T02:18:35.718Z,10.20
2022-08-17T02:19:35.711Z,8.60
2022-08-17T02:20:41.809Z,9.80
2022-08-17T02:21:36.697Z,7.70
2022-08-17T02:22:35.710Z,13.10
2022-08-17T02:23:35.660Z,7.20
2022-08-17T02:24:58.400Z,8.40
2022-08-17T02:25:36.644Z,8.30
2022-08-17T02:26:35.642Z,10.90
2022-08-17T02:27:35.650Z,9.80
2022-08-17T02:28:35.621Z,7.90
2022-08-17T02:29:35.614Z,8.40
2022-08-17T02:31:00.363Z,9.20
2022-08-17T02:31:36.586Z,10.40
2022-08-17T02:32:35.604Z,9.50
2022-08-17T02:33:42.545Z,7.20
2022-08-17T02:34:36.554Z,9.40
2022-08-17T02:35:35.554Z,9.10
2022-08-17T02:36:35.555Z,12.10
2022-08-17T02:37:35.546Z,11.90
2022-08-17T02:38:35.527Z,16.70
2022-08-17T02:39:35.535Z,9.80
2022-08-17T02:40:36.197Z,14.20
2022-08-17T02:41:35.478Z,12.90
2022-08-17T02:42:35.500Z,9.10
2022-08-17T02:43:35.457Z,7.80
2022-08-17T02:44:39.656Z,10.50
2022-08-17T02:45:35.448Z,9.00
2022-08-17T02:46:35.428Z,8.90
2022-08-17T02:47:35.438Z,11.50
2022-08-17T02:48:35.418Z,9.40
2022-08-17T02:49:35.399Z,7.80
2022-08-17T02:50:35.393Z,9.90
2022-08-17T02:51:35.388Z,12.00
2022-08-17T02:52:43.368Z,12.90
2022-08-17T02:53:36.384Z,8.50
2022-08-17T02:54:40.290Z,8.30
2022-08-17T02:55:36.331Z,14.80
2022-08-17T02:56:35.323Z,8.70
2022-08-17T02:57:35.331Z,8.40
2022-08-17T02:58:36.201Z,9.80
2022-08-17T02:59:35.283Z,10.10
2022-08-17T03:00:35.278Z,9.40
2022-08-17T03:01:35.327Z,9.30
2022-08-17T03:02:35.276Z,9.20
2022-08-17T03:03:35.245Z,6.30
2022-08-17T03:04:35.556Z,7.60
2022-08-17T03:05:35.218Z,8.20
2022-08-17T03:06:35.217Z,10.70
2022-08-17T03:07:35.227Z,10.70
2022-08-17T03:08:35.198Z,8.30
2022-08-17T03:09:35.181Z,7.80
2022-08-17T03:10:35.172Z,12.50
2022-08-17T03:11:35.159Z,6.20
2022-08-17T03:12:35.169Z,9.10
2022-08-17T03:13:35.142Z,10.90
2022-08-17T03:14:40.734Z,11.40
2022-08-17T03:15:36.109Z,10.00
2022-08-17T03:16:35.118Z,10.10
2022-08-17T03:17:35.130Z,8.80
2022-08-17T03:18:35.082Z,8.40
2022-08-17T03:19:35.073Z,11.50
2022-08-17T03:20:35.062Z,16.60
2022-08-17T03:21:35.052Z,11.40
2022-08-17T03:22:36.657Z,11.60
2022-08-17T03:23:35.030Z,12.70
2022-08-17T03:24:35.023Z,10.50
2022-08-17T03:25:35.013Z,9.30
2022-08-17T03:26:35.003Z,9.80
2022-08-17T03:27:35.004Z,12.80
2022-08-17T03:28:34.974Z,9.00
2022-08-17T03:29:34.976Z,12.10
2022-08-17T03:30:34.956Z,8.30
2022-08-17T03:31:37.013Z,10.00
2022-08-17T03:32:34.957Z,10.00
2022-08-17T03:33:34.919Z,10.90
2022-08-17T03:34:34.928Z,9.90
2022-08-17T03:35:34.905Z,14.90
2022-08-17T03:36:36.092Z,16.50
2022-08-17T03:37:34.899Z,10.30
2022-08-17T03:38:39.113Z,12.20
2022-08-17T03:39:34.940Z,9.90
2022-08-17T03:40:58.999Z,11.70
2022-08-17T03:41:35.840Z,15.10
2022-08-17T03:42:34.814Z,12.60
2022-08-17T03:43:34.796Z,11.90
2022-08-17T03:44:34.813Z,10.80
2022-08-17T03:45:34.801Z,10.00
2022-08-17T03:46:35.696Z,9.30
2022-08-17T03:47:34.802Z,11.70
2022-08-17T03:48:34.773Z,23.10
2022-08-17T03:49:34.752Z,11.00
2022-08-17T03:50:34.744Z,9.30
2022-08-17T03:51:34.733Z,12.10
2022-08-17T03:52:34.703Z,16.00
2022-08-17T03:53:34.659Z,11.60
2022-08-17T03:54:34.653Z,16.30
2022-08-17T03:55:36.229Z,15.50
2022-08-17T03:56:34.625Z,14.60
2022-08-17T03:57:34.635Z,9.70
2022-08-17T03:58:34.608Z,12.50
2022-08-17T03:59:34.597Z,10.10
2022-08-17T04:00:34.587Z,13.40
2022-08-17T04:01:35.638Z,15.90
2022-08-17T04:02:34.587Z,15.10
2022-08-17T04:03:34.556Z,12.10
2022-08-17T04:04:34.539Z,11.30
2022-08-17T04:05:34.647Z,12.30
2022-08-17T04:06:34.519Z,15.70
2022-08-17T04:07:34.529Z,13.50
2022-08-17T04:08:34.508Z,14.50
2022-08-17T04:09:34.480Z,15.40
2022-08-17T04:10:34.480Z,12.20
2022-08-17T04:11:35.471Z,13.10
2022-08-17T04:12:34.482Z,13.30
2022-08-17T04:13:34.446Z,10.80
2022-08-17T04:14:34.433Z,13.00
2022-08-17T04:15:34.423Z,12.30
2022-08-17T04:16:34.415Z,13.30
2022-08-17T04:17:34.424Z,13.20
2022-08-17T04:18:34.394Z,10.90
2022-08-17T04:19:34.383Z,14.10
2022-08-17T04:20:34.387Z,10.10
2022-08-17T04:21:34.374Z,12.80
2022-08-17T04:22:34.539Z,11.80
2022-08-17T04:23:34.336Z,11.40
2022-08-17T04:24:34.345Z,10.90
2022-08-17T04:25:34.318Z,9.20
2022-08-17T04:26:54.082Z,12.30
2022-08-17T04:27:35.317Z,15.50
2022-08-17T04:28:34.287Z,9.30
2022-08-17T04:29:54.399Z,13.50
2022-08-17T04:30:35.268Z,11.50
2022-08-17T04:31:34.260Z,13.50
2022-08-17T04:33:10.467Z,10.90
2022-08-17T04:33:35.246Z,9.20
2022-08-17T04:34:34.230Z,14.40
2022-08-17T04:35:34.210Z,14.50
2022-08-17T04:36:34.200Z,16.80
2022-08-17T04:37:34.220Z,10.40
2022-08-17T04:38:34.201Z,11.40
2022-08-17T04:39:34.208Z,12.30
2022-08-17T04:40:34.153Z,12.80
2022-08-17T04:41:34.143Z,12.90
2022-08-17T04:42:34.162Z,14.10
2022-08-17T04:43:34.123Z,14.40
2022-08-17T04:44:37.785Z,17.40
2022-08-17T04:45:34.102Z,18.50
2022-08-17T04:46:34.094Z,8.90
2022-08-17T04:47:34.105Z,14.00
2022-08-17T04:48:35.956Z,14.10
2022-08-17T04:49:34.055Z,10.50
2022-08-17T04:50:34.056Z,11.30
2022-08-17T04:51:34.036Z,11.10
2022-08-17T04:52:43.443Z,13.60
2022-08-17T04:53:35.021Z,10.10
2022-08-17T04:54:34.017Z,15.50
2022-08-17T04:55:33.998Z,14.20
2022-08-17T04:56:33.997Z,13.90
2022-08-17T04:57:38.472Z,15.90
2022-08-17T04:58:34.969Z,13.90
2022-08-17T04:59:33.950Z,11.90
2022-08-17T05:00:33.941Z,12.80
2022-08-17T05:01:33.960Z,15.90
2022-08-17T05:02:33.950Z,20.10
2022-08-17T05:03:33.910Z,12.20
2022-08-17T05:04:35.444Z,21.00
2022-08-17T05:05:33.891Z,18.80
2022-08-17T05:06:33.905Z,13.90
2022-08-17T05:07:33.891Z,14.60
2022-08-17T05:08:33.874Z,16.50
2022-08-17T05:09:33.850Z,16.80
2022-08-17T05:10:33.843Z,15.50
2022-08-17T05:11:33.835Z,20.00
2022-08-17T05:12:33.844Z,13.80
2022-08-17T05:13:33.823Z,14.60
2022-08-17T05:14:34.041Z,17.60
2022-08-17T05:15:36.052Z,19.10
2022-08-17T05:16:33.777Z,14.30
2022-08-17T05:17:33.786Z,11.40
2022-08-17T05:18:33.758Z,14.80
2022-08-17T05:19:33.745Z,15.40
2022-08-17T05:20:33.741Z,14.10
2022-08-17T05:21:33.718Z,15.80
2022-08-17T05:22:33.738Z,13.40
2022-08-17T05:23:42.972Z,15.00
2022-08-17T05:24:38.678Z,16.70
2022-08-17T05:25:36.220Z,14.40
2022-08-17T05:26:33.679Z,11.10
2022-08-17T05:27:35.417Z,11.10
2022-08-17T05:28:33.652Z,16.60
2022-08-17T05:29:35.452Z,15.30
2022-08-17T05:30:33.632Z,13.60
2022-08-17T05:31:33.623Z,10.90
2022-08-17T05:32:39.006Z,12.90
2022-08-17T05:33:34.603Z,7.40
2022-08-17T05:34:33.593Z,19.50
2022-08-17T05:35:33.582Z,12.30
2022-08-17T05:36:42.331Z,13.00
2022-08-17T05:37:34.583Z,19.30
2022-08-17T05:38:33.553Z,14.90
2022-08-17T05:39:33.570Z,10.70
2022-08-17T05:40:33.529Z,25.20
2022-08-17T05:41:33.515Z,12.90
2022-08-17T05:42:33.546Z,16.10
2022-08-17T05:43:33.503Z,11.40
2022-08-17T05:44:33.488Z,15.70
2022-08-17T05:45:55.713Z,14.40
2022-08-17T05:46:34.478Z,12.90
2022-08-17T05:47:33.477Z,13.40
2022-08-17T05:48:35.801Z,19.80
2022-08-17T05:49:34.436Z,16.60
2022-08-17T05:50:33.418Z,15.90
2022-08-17T05:51:33.409Z,19.60
2022-08-17T05:52:33.422Z,14.50
2022-08-17T05:53:35.243Z,14.00
2022-08-17T05:54:33.381Z,10.70
2022-08-17T05:55:33.370Z,11.80
2022-08-17T05:56:33.362Z,14.10
2022-08-17T05:57:33.367Z,13.30
2022-08-17T05:58:33.342Z,11.70
2022-08-17T05:59:33.322Z,17.90
2022-08-17T06:00:33.315Z,14.10
2022-08-17T06:01:33.359Z,11.80
2022-08-17T06:02:33.314Z,15.80
2022-08-17T06:03:33.274Z,11.50
2022-08-17T06:04:33.274Z,11.50
2022-08-17T06:05:33.265Z,11.20
2022-08-17T06:06:33.252Z,18.80
2022-08-17T06:07:33.255Z,13.50
2022-08-17T06:08:33.225Z,21.50
2022-08-17T06:09:34.062Z,15.30
2022-08-17T06:10:33.215Z,17.90
2022-08-17T06:11:33.198Z,17.40
2022-08-17T06:12:33.206Z,16.00
2022-08-17T06:13:33.169Z,16.20
2022-08-17T06:14:33.159Z,15.80
2022-08-17T06:15:33.150Z,15.70
2022-08-17T06:16:34.755Z,14.20
2022-08-17T06:17:33.150Z,16.20
2022-08-17T06:18:33.110Z,17.00
2022-08-17T06:19:33.121Z,19.30
2022-08-17T06:20:33.092Z,14.60
2022-08-17T06:21:33.082Z,18.60
2022-08-17T06:22:33.091Z,18.80
2022-08-17T06:23:33.062Z,12.80
2022-08-17T06:24:33.053Z,18.90
2022-08-17T06:25:33.044Z,18.60
2022-08-17T06:26:39.653Z,18.40
2022-08-17T06:27:34.046Z,18.80
2022-08-17T06:28:33.014Z,22.80
2022-08-17T06:29:33.008Z,15.20
2022-08-17T06:30:57.410Z,14.00
2022-08-17T06:31:33.976Z,14.90
2022-08-17T06:32:32.986Z,17.20
2022-08-17T06:33:32.958Z,14.30
2022-08-17T06:34:32.962Z,12.70
2022-08-17T06:35:34.023Z,13.10
2022-08-17T06:36:32.926Z,18.70
2022-08-17T06:37:32.938Z,17.00
2022-08-17T06:38:37.474Z,12.70
2022-08-17T06:39:33.940Z,12.70
2022-08-17T06:40:32.888Z,18.60
2022-08-17T06:41:32.880Z,17.30
2022-08-17T06:43:02.206Z,18.70
2022-08-17T06:43:33.850Z,16.70
2022-08-17T06:44:49.882Z,14.40
2022-08-17T06:45:33.833Z,16.90
2022-08-17T06:46:32.821Z,20.00
2022-08-17T06:47:32.843Z,23.20
2022-08-17T06:48:32.802Z,17.20
2022-08-17T06:49:32.794Z,16.30
2022-08-17T06:50:32.784Z,15.60
2022-08-17T06:51:32.774Z,19.50
2022-08-17T06:52:55.756Z,17.50
2022-08-17T06:53:33.753Z,18.30
2022-08-17T06:54:32.744Z,13.80
2022-08-17T06:55:37.706Z,18.30
2022-08-17T06:56:54.472Z,18.50
2022-08-17T06:57:33.727Z,16.50
2022-08-17T06:58:32.695Z,18.50
2022-08-17T06:59:34.836Z,15.00
2022-08-17T07:00:33.774Z,15.60
2022-08-17T07:01:32.728Z,17.50
2022-08-17T07:02:52.487Z,22.00
2022-08-17T07:03:33.638Z,18.40
2022-08-17T07:04:32.631Z,13.30
2022-08-17T07:05:32.645Z,13.80
2022-08-17T07:06:32.610Z,21.80
2022-08-17T07:07:33.644Z,26.50
2022-08-17T07:08:34.859Z,17.50
2022-08-17T07:09:32.589Z,20.20
2022-08-17T07:10:32.562Z,19.10
2022-08-17T07:11:32.561Z,22.90
2022-08-17T07:12:32.571Z,15.80
2022-08-17T07:13:32.543Z,18.50
2022-08-17T07:14:32.542Z,18.00
2022-08-17T07:15:32.523Z,16.10
2022-08-17T07:16:32.508Z,16.40
2022-08-17T07:17:46.975Z,15.80
2022-08-17T07:18:33.484Z,24.00
2022-08-17T07:19:32.475Z,21.50
2022-08-17T07:20:32.464Z,28.90
2022-08-17T07:21:32.456Z,19.60
2022-08-17T07:22:57.203Z,19.10
2022-08-17T07:23:33.455Z,21.90
2022-08-17T07:24:32.426Z,23.10
2022-08-17T07:25:32.426Z,18.60
2022-08-17T07:26:32.398Z,17.80
2022-08-17T07:27:32.399Z,15.80
2022-08-17T07:28:32.406Z,14.30
2022-08-17T07:29:32.379Z,12.20
2022-08-17T07:30:45.835Z,16.10
2022-08-17T07:31:33.363Z,19.60
2022-08-17T07:32:32.358Z,18.40
2022-08-17T07:33:32.361Z,19.10
2022-08-17T07:34:32.323Z,14.20
2022-08-17T07:35:40.941Z,16.00
2022-08-17T07:36:33.302Z,16.20
2022-08-17T07:37:32.292Z,21.20
2022-08-17T07:38:32.304Z,17.50
2022-08-17T07:39:32.299Z,25.10
2022-08-17T07:40:32.319Z,16.60
2022-08-17T07:41:57.430Z,17.50
2022-08-17T07:42:34.394Z,11.90
2022-08-17T07:43:32.254Z,14.60
2022-08-17T07:44:32.224Z,16.80
2022-08-17T07:45:32.206Z,16.00
2022-08-17T07:46:32.199Z,17.60
2022-08-17T07:47:32.197Z,15.80
2022-08-17T07:48:32.197Z,17.20
2022-08-17T07:49:32.170Z,20.30
2022-08-17T07:50:32.149Z,20.80
2022-08-17T07:51:32.149Z,12.80
2022-08-17T07:52:51.365Z,21.40
2022-08-17T07:53:33.130Z,23.20
2022-08-17T07:54:32.111Z,27.70
2022-08-17T07:55:32.100Z,17.00
2022-08-17T07:56:34.515Z,19.30
2022-08-17T07:57:32.102Z,30.40
2022-08-17T07:58:32.064Z,23.00
2022-08-17T07:59:33.417Z,21.50
2022-08-17T08:00:32.988Z,21.60
2022-08-17T08:01:39.412Z,18.90
2022-08-17T08:02:33.904Z,29.90
2022-08-17T08:03:32.016Z,23.60
2022-08-17T08:05:49.744Z,17.20
2022-08-17T08:06:32.994Z,25.00
2022-08-17T08:07:32.039Z,18.80
2022-08-17T08:08:31.964Z,16.70
2022-08-17T08:09:31.956Z,21.50
2022-08-17T08:10:31.937Z,21.50
2022-08-17T08:11:31.936Z,20.50
2022-08-17T08:12:33.713Z,17.60
2022-08-17T08:13:31.916Z,29.50
2022-08-17T08:14:31.898Z,24.90
2022-08-17T08:15:31.888Z,26.10
2022-08-17T08:16:31.879Z,21.30
2022-08-17T08:17:31.891Z,18.60
2022-08-17T08:18:38.693Z,21.50
2022-08-17T08:19:32.851Z,23.20
2022-08-17T08:20:51.485Z,19.20
2022-08-17T08:21:32.831Z,19.90
2022-08-17T08:22:31.843Z,21.30
2022-08-17T08:23:31.812Z,26.40
2022-08-17T08:24:31.814Z,20.30
2022-08-17T08:25:31.784Z,19.00
2022-08-17T08:26:31.776Z,16.80
2022-08-17T08:27:31.804Z,19.60
2022-08-17T08:28:31.774Z,16.40
2022-08-17T08:29:31.776Z,22.70
2022-08-17T08:30:33.053Z,20.30
2022-08-17T08:31:31.726Z,22.10
2022-08-17T08:32:31.737Z,20.00
2022-08-17T08:33:31.708Z,22.30
2022-08-17T08:34:58.623Z,27.60
2022-08-17T08:35:32.688Z,21.60
2022-08-17T08:37:14.226Z,19.90
2022-08-17T08:37:36.706Z,18.40
2022-08-17T08:38:32.654Z,22.50
2022-08-17T08:39:31.676Z,14.90
2022-08-17T08:40:31.630Z,19.30
2022-08-17T08:41:31.621Z,21.70
2022-08-17T08:42:31.640Z,15.20
2022-08-17T08:43:31.602Z,24.30
2022-08-17T08:44:59.899Z,24.50
2022-08-17T08:45:32.587Z,13.50
2022-08-17T08:46:31.565Z,27.00
2022-08-17T08:47:31.589Z,11.70
2022-08-17T08:48:55.651Z,21.20
2022-08-17T08:50:01.364Z,20.40
2022-08-17T08:50:37.686Z,16.00
2022-08-17T08:51:32.526Z,15.90
2022-08-17T08:52:31.541Z,14.70
2022-08-17T08:53:31.507Z,20.30
2022-08-17T08:54:31.487Z,20.90
2022-08-17T08:55:31.478Z,25.10
2022-08-17T08:56:31.469Z,18.40
2022-08-17T08:57:34.378Z,18.20
2022-08-17T08:58:41.330Z,18.20
2022-08-17T08:59:32.440Z,17.30
2022-08-17T09:00:31.430Z,14.60
2022-08-17T09:01:31.450Z,16.90
2022-08-17T09:02:34.659Z,13.90
2022-08-17T09:03:51.857Z,13.40
2022-08-17T09:04:44.972Z,13.00
2022-08-17T09:05:32.380Z,12.60
2022-08-17T09:06:37.439Z,20.90
2022-08-17T09:07:32.363Z,18.40
2022-08-17T09:08:31.373Z,18.20
2022-08-17T09:09:31.344Z,20.30
2022-08-17T09:10:31.327Z,13.30
2022-08-17T09:11:31.325Z,17.00
2022-08-17T09:12:31.317Z,20.60
2022-08-17T09:13:31.339Z,17.20
2022-08-17T09:14:31.286Z,11.00
2022-08-17T09:15:32.280Z,15.20
2022-08-17T09:16:31.278Z,7.90
2022-08-17T09:17:31.268Z,12.90
2022-08-17T09:19:01.132Z,18.00
2022-08-17T09:19:32.239Z,10.00
2022-08-17T09:20:31.230Z,16.50
2022-08-17T09:21:33.723Z,11.70
2022-08-17T09:22:31.233Z,13.90
2022-08-17T09:23:31.231Z,10.80
2022-08-17T09:24:31.191Z,13.40
2022-08-17T09:25:31.183Z,16.10
2022-08-17T09:26:31.174Z,9.60
2022-08-17T09:27:31.166Z,13.10
2022-08-17T09:28:31.173Z,17.90
2022-08-17T09:29:31.152Z,17.10
2022-08-17T09:30:31.145Z,14.00
2022-08-17T09:31:33.365Z,16.50
2022-08-17T09:32:31.116Z,13.00
2022-08-17T09:33:31.127Z,16.70
2022-08-17T09:34:33.103Z,12.80
2022-08-17T09:35:32.787Z,11.40
2022-08-17T09:36:32.077Z,9.00
2022-08-17T09:37:31.069Z,14.00
2022-08-17T09:38:32.654Z,10.30
2022-08-17T09:39:31.112Z,8.80
2022-08-17T09:40:31.040Z,16.60
2022-08-17T09:41:31.031Z,12.60
2022-08-17T09:42:31.020Z,12.60
2022-08-17T09:43:31.031Z,11.70
2022-08-17T09:44:31.041Z,8.10
2022-08-17T09:45:31.006Z,10.60
2022-08-17T09:46:30.984Z,8.20
2022-08-17T09:47:30.973Z,7.70
2022-08-17T09:48:30.983Z,13.40
2022-08-17T09:49:34.677Z,8.80
2022-08-17T09:51:03.336Z,9.40
2022-08-17T09:51:31.934Z,13.10
2022-08-17T09:52:30.925Z,7.40
2022-08-17T09:53:31.915Z,12.60
2022-08-17T09:54:39.938Z,12.20
2022-08-17T09:55:31.896Z,8.80
2022-08-17T09:56:30.877Z,17.10
2022-08-17T09:57:31.989Z,10.70
2022-08-17T09:58:30.902Z,10.80
2022-08-17T09:59:38.193Z,19.10
2022-08-17T10:00:31.842Z,17.30
2022-08-17T10:01:30.875Z,11.70
2022-08-17T10:02:30.823Z,15.80
2022-08-17T10:03:30.830Z,12.70
2022-08-17T10:04:30.803Z,13.20
2022-08-17T10:05:30.802Z,9.60
2022-08-17T10:06:30.791Z,10.20
2022-08-17T10:07:30.800Z,10.00
2022-08-17T10:08:30.812Z,6.00
2022-08-17T10:09:30.761Z,8.80
2022-08-17T10:10:32.483Z,10.20
2022-08-17T10:11:33.756Z,8.60
2022-08-17T10:12:30.746Z,9.60
2022-08-17T10:13:30.736Z,9.60
2022-08-17T10:14:37.282Z,8.70
2022-08-17T10:15:31.700Z,17.50
2022-08-17T10:16:30.689Z,14.30
2022-08-17T10:17:30.687Z,16.50
2022-08-17T10:18:33.135Z,14.60
2022-08-17T10:19:30.671Z,10.80
2022-08-17T10:20:30.656Z,10.90
2022-08-17T10:21:30.641Z,20.40
2022-08-17T10:22:34.710Z,15.70
2022-08-17T10:23:30.641Z,15.10
2022-08-17T10:24:30.643Z,13.10
2022-08-17T10:25:53.492Z,12.00
2022-08-17T10:26:55.408Z,11.60
2022-08-17T10:27:31.583Z,17.00
2022-08-17T10:28:30.672Z,15.80
2022-08-17T10:29:30.564Z,11.60
2022-08-17T10:30:31.579Z,14.40
2022-08-17T10:31:35.235Z,21.80
2022-08-17T10:32:31.541Z,19.40
2022-08-17T10:33:30.545Z,19.70
2022-08-17T10:34:30.518Z,12.90
2022-08-17T10:35:31.503Z,10.80
2022-08-17T10:36:30.495Z,12.60
2022-08-17T10:37:30.505Z,11.50
2022-08-17T10:38:30.508Z,19.80
2022-08-17T10:39:30.524Z,10.80
2022-08-17T10:40:30.507Z,6.30
2022-08-17T10:41:30.451Z,7.30
2022-08-17T10:42:32.789Z,13.70
2022-08-17T10:43:30.458Z,10.40
2022-08-17T10:44:38.601Z,8.50
2022-08-17T10:45:31.411Z,9.50
2022-08-17T10:46:31.783Z,12.80
2022-08-17T10:47:38.240Z,13.90
2022-08-17T10:48:31.402Z,9.30
2022-08-17T10:49:30.383Z,10.60
2022-08-17T10:50:30.364Z,9.70
2022-08-17T10:51:30.354Z,12.30
2022-08-17T10:52:30.344Z,12.40
2022-08-17T10:53:30.355Z,12.40
2022-08-17T10:54:30.333Z,10.40
2022-08-17T10:55:30.315Z,12.80
2022-08-17T10:56:30.312Z,9.90
2022-08-17T10:57:30.295Z,18.50
2022-08-17T10:58:30.315Z,23.10
2022-08-17T10:59:30.276Z,15.50
2022-08-17T11:00:30.268Z,18.90
2022-08-17T11:01:30.383Z,7.20
2022-08-17T11:02:31.123Z,5.70
2022-08-17T11:03:30.990Z,12.80
2022-08-17T11:04:30.238Z,16.80
2022-08-17T11:05:30.219Z,6.40
2022-08-17T11:06:30.218Z,4.40
2022-08-17T11:07:30.201Z,5.90
2022-08-17T11:08:30.241Z,4.80
2022-08-17T11:09:30.191Z,6.20
2022-08-17T11:10:30.183Z,5.70
2022-08-17T11:11:30.162Z,7.30
2022-08-17T11:12:30.165Z,8.20
2022-08-17T11:13:30.163Z,6.90
2022-08-17T11:14:30.145Z,8.80
2022-08-17T11:15:30.851Z,9.50
2022-08-17T11:16:30.117Z,9.00
2022-08-17T11:17:30.106Z,7.90
2022-08-17T11:18:30.126Z,4.70
2022-08-17T11:19:30.077Z,4.20
2022-08-17T11:20:30.077Z,7.60
2022-08-17T11:21:30.067Z,8.60
2022-08-17T11:22:33.561Z,6.40
2022-08-17T11:23:30.061Z,9.20
2022-08-17T11:24:30.040Z,7.60
2022-08-17T11:25:30.028Z,9.60
2022-08-17T11:26:30.027Z,11.90
2022-08-17T11:27:29.999Z,11.70
2022-08-17T11:28:30.013Z,11.60
2022-08-17T11:29:29.980Z,9.10
2022-08-17T11:30:29.986Z,21.70
2022-08-17T11:31:38.695Z,7.90
2022-08-17T11:32:31.114Z,11.30
2022-08-17T11:33:29.976Z,20.60
2022-08-17T11:34:29.933Z,18.10
2022-08-17T11:35:29.922Z,14.60
2022-08-17T11:36:29.915Z,11.40
2022-08-17T11:37:29.904Z,7.90
2022-08-17T11:38:29.916Z,8.70
2022-08-17T11:39:29.920Z,8.20
2022-08-17T11:40:29.876Z,8.50
2022-08-17T11:41:29.859Z,7.60
2022-08-17T11:42:29.857Z,8.70
2022-08-17T11:43:29.858Z,6.90
2022-08-17T11:44:29.842Z,16.40
2022-08-17T11:45:32.357Z,11.00
2022-08-17T11:46:29.809Z,5.40
2022-08-17T11:47:29.799Z,12.40
2022-08-17T11:48:30.288Z,12.20
2022-08-17T11:49:29.781Z,13.10
2022-08-17T11:50:29.775Z,9.00
2022-08-17T11:51:29.781Z,16.70
2022-08-17T11:52:29.752Z,12.40
2022-08-17T11:53:29.761Z,12.50
2022-08-17T11:54:34.315Z,12.70
2022-08-17T11:55:41.919Z,16.80
2022-08-17T11:56:30.715Z,16.30
2022-08-17T11:57:29.704Z,15.60
2022-08-17T11:58:29.740Z,25.20
2022-08-17T11:59:29.676Z,11.80
2022-08-17T12:00:29.674Z,11.60
2022-08-17T12:01:29.656Z,13.00
2022-08-17T12:02:29.934Z,15.60
2022-08-17T12:03:29.697Z,8.40
2022-08-17T12:04:29.714Z,11.00
2022-08-17T12:05:29.626Z,10.70
2022-08-17T12:06:30.979Z,10.50
2022-08-17T12:07:29.609Z,15.50
2022-08-17T12:08:29.617Z,11.80
2022-08-17T12:09:29.578Z,12.40
2022-08-17T12:10:29.571Z,19.00
2022-08-17T12:12:01.648Z,19.60
2022-08-17T12:12:30.553Z,10.00
2022-08-17T12:13:34.643Z,11.90
2022-08-17T12:15:05.762Z,15.10
2022-08-17T12:15:30.512Z,13.20
2022-08-17T12:16:29.528Z,14.30
2022-08-17T12:17:41.525Z,18.60
2022-08-17T12:18:30.505Z,21.80
2022-08-17T12:19:29.479Z,25.00
2022-08-17T12:20:29.480Z,12.40
2022-08-17T12:21:29.471Z,20.30
2022-08-17T12:22:29.446Z,14.60
2022-08-17T12:23:29.490Z,19.80
2022-08-17T12:24:29.434Z,11.40
2022-08-17T12:25:29.417Z,7.40
2022-08-17T12:26:29.408Z,11.40
2022-08-17T12:28:04.399Z,13.20
2022-08-17T12:28:30.417Z,12.90
2022-08-17T12:29:35.902Z,13.90
2022-08-17T12:30:30.360Z,8.40
2022-08-17T12:31:29.350Z,10.00
2022-08-17T12:32:29.351Z,4.90
2022-08-17T12:33:29.354Z,12.30
2022-08-17T12:34:29.323Z,13.30
2022-08-17T12:35:29.318Z,20.20
2022-08-17T12:36:29.303Z,10.80
2022-08-17T12:37:29.293Z,8.70
2022-08-17T12:38:33.025Z,8.80
2022-08-17T12:39:29.315Z,12.10
2022-08-17T12:40:29.265Z,11.70
2022-08-17T12:41:29.254Z,16.80
2022-08-17T12:42:29.265Z,12.50
2022-08-17T12:43:29.248Z,12.50
2022-08-17T12:44:29.226Z,11.10
2022-08-17T12:45:29.207Z,7.70
2022-08-17T12:46:29.206Z,10.60
2022-08-17T12:47:29.557Z,17.90
2022-08-17T12:48:29.198Z,10.70
2022-08-17T12:49:29.168Z,12.80
2022-08-17T12:50:30.254Z,10.50
2022-08-17T12:51:29.387Z,6.50
2022-08-17T12:52:29.140Z,11.90
2022-08-17T12:53:29.169Z,9.20
2022-08-17T12:54:29.121Z,14.50
2022-08-17T12:55:32.740Z,10.50
2022-08-17T12:56:29.101Z,13.80
2022-08-17T12:57:29.083Z,13.40
2022-08-17T12:58:29.097Z,14.30
2022-08-17T12:59:29.064Z,12.20